Main page
METAR-TAF:

METAR-TAF

Airports :

Chennault International Airport

Lake Charles, Louisiana, United States

latitude: 30-13N, longitude: 093-09W, elevation: 13 ft

Current weather observation

The report was made 1 hour and 23 minutes ago, at 11:50 UTC
Calm wind
Temperature 79°F
Humidity 89%
Pressure 30.00 in. Hg
Visibility: 10 miles
Scattered clouds at a height of 7500 ft

METAR: KCWF 171150Z 00000KT 10SM SCT075 26/24 A3000 RMK TSE48

Time: 08:13 (13:13 UTC)


TAF: missing

Weather observations and forecasts of more than 4000 airports (METAR and TAF reports).

The available stations are represented by yellow and red dots on the map.

Hover mouse over dot to see the name of the station.

Then click to see weather observations and forecasts.

To change the map : click on the green buttons with a black cross to zoom in, on the green button with a dash to zoom out, or on the green arrows for adjacent maps.


METAR-TAF: